"TOA5","C150","CR1000","43625","CR1000.Std.22","CPU:247411_r6_eppley7.CR1","60899","eppley_data"
"TIMESTAMP","RECORD","PIR_net","Case_Temp_K","PSP_in_Avg","PSP_in_Min","PSP_in_Max","PIR_in_Avg","PIR_in_Min","PIR_in_Max","wd_2minavg","ws_2minavg","AirTC","RH","BP_mbar"
"TS","RN","","","","","","","","","","","Deg C","Percent","Millibar"
"","","Smp","Smp","Avg","Min","Max","Avg","Min","Max","Smp","Smp","Smp","Smp","Smp"
"2019-04-25 13:10:00",62447,"NAN","NAN","NAN","NAN","NAN","NAN","NAN","NAN",91.2,3.742,-13.55,61.77,982
"2019-04-25 13:20:00",62448,"NAN","NAN","NAN","NAN","NAN","NAN","NAN","NAN",70.38,4.558,-13.58,63.31,982
"2019-04-25 13:30:00",62449,"NAN","NAN","NAN","NAN","NAN","NAN","NAN","NAN",73,5.39,-13.34,60.41,982
"2019-04-25 13:40:00",62450,"NAN","NAN","NAN","NAN","NAN","NAN","NAN","NAN",73.65,5.73,-12.66,54.57,982
"2019-04-25 13:50:00",62451,"NAN","NAN","NAN","NAN","NAN","NAN","NAN","NAN",82.6,5.067,-12.8,55.29,982
"2019-04-25 14:00:00",62452,"NAN","NAN","NAN","NAN","NAN","NAN","NAN","NAN",89.7,5.294,-12.46,50.48,982
"2019-04-25 14:10:00",62453,"NAN","NAN","NAN","NAN","NAN","NAN","NAN","NAN",90.3,5.558,-12.94,55.97,982
"2019-04-25 14:20:00",62454,"NAN","NAN","NAN","NAN","NAN","NAN","NAN","NAN",42.46,5.769,-15.94,63.72,982
"2019-04-25 14:30:00",62455,"NAN","NAN","NAN","NAN","NAN","NAN","NAN","NAN",51.72,5.981,-15.87,61.06,983
"2019-04-25 14:40:00",62456,"NAN","NAN","NAN","NAN","NAN","NAN","NAN","NAN",47.76,6.829,-16.76,64.78,983
"2019-04-25 14:50:00",62457,"NAN","NAN","NAN","NAN","NAN","NAN","NAN","NAN",60.21,7.255,-16.92,65.27,983
"2019-04-25 15:00:00",62458,"NAN","NAN","NAN","NAN","NAN","NAN","NAN","NAN",66.05,6.894,-15.56,59.88,982
"2019-04-25 15:10:00",62459,"NAN","NAN","NAN","NAN","NAN","NAN","NAN","NAN",63.53,6.639,-16.75,63.3,982
"2019-04-25 15:20:00",62460,"NAN","NAN","NAN","NAN","NAN","NAN","NAN","NAN",34.04,7.521,-17.5,69.03,982
"2019-04-25 15:30:00",62461,"NAN","NAN","NAN","NAN","NAN","NAN","NAN","NAN",39.31,7.501,-17.43,69.07,982
"2019-04-25 15:40:00",62462,"NAN","NAN","NAN","NAN","NAN","NAN","NAN","NAN",35.58,8.31,-17.05,68.09,982
"2019-04-25 15:50:00",62463,"NAN","NAN","NAN","NAN","NAN","NAN","NAN","NAN",38.42,7.434,-16.16,65.71,982
"2019-04-25 16:00:00",62464,"NAN","NAN","NAN","NAN","NAN","NAN","NAN","NAN",39.47,7.751,-16.06,64.99,982
"2019-04-25 16:10:00",62465,"NAN","NAN","NAN","NAN","NAN","NAN","NAN","NAN",38.86,6.692,-15.85,62.53,982
"2019-04-25 16:20:00",62466,"NAN","NAN","NAN","NAN","NAN","NAN","NAN","NAN",40.42,6.446,-15.27,58.71,982
"2019-04-25 16:30:00",62467,"NAN","NAN","NAN","NAN","NAN","NAN","NAN","NAN",26.06,7.829,-16.06,60.07,983
"2019-04-25 16:40:00",62468,"NAN","NAN","NAN","NAN","NAN","NAN","NAN","NAN",39.61,5.098,-17.02,64.88,983
"2019-04-25 16:50:00",62469,"NAN","NAN","NAN","NAN","NAN","NAN","NAN","NAN",59.94,5.129,-18.01,68.5,983
"2019-04-25 17:00:00",62470,"NAN","NAN","NAN","NAN","NAN","NAN","NAN","NAN",70.52,5.089,-18.18,69.84,982